Manistique, Michigan
Current Conditions -  °F | °C
As of 5:54 AM on Monday 20 Oct 2014 (Local Time) from KISQ Reporting Station
Overcast Overcast  
Wind Chill: 44°   Ceiling: 6000
Heat Index: 47°   Visibility: 10mi
Dew Point: 45°   Wind: 7mph
Humidity: 93%   Direction: 320°NW
Pressure: 29.73"   Gusts: NA
Location:  45.96°N, 86.25°W
Report Text: KISQ 200954Z AUTO 32006KT 10SM OVC060 08/07 A2973 RMK AO2 T00830072
Loading
Personal Weather Stations






























Interactive Weather Map New forecast layout! Learn more

10-Day Weather Forecast

Advertisements
Track Severe Weather on mobile